Time;durP1;ratioP1;P1;durP2;ratioP2;P2;SDS_P1;SDS_P2;PMS_P1;PMS_P2;Temp;Humidity;BMP_temperature;BMP_pressure;BME280_temperature;BME280_humidity;BME280_pressure;Samples;Min_cycle;Max_cycle;Signal;HPM_P1;HPM_P2
2021/12/31 00:02:17;;;;;;;7.35;1.75;;;14.50;99.90;;;;;;5076686;28;20025;-63
2021/12/31 00:04:42;;;;;;;5.82;2.28;;;14.50;99.90;;;;;;5073130;28;20443;-63
2021/12/31 00:07:09;;;;;;;4.82;1.70;;;14.50;99.90;;;;;;5074416;28;20041;-63
2021/12/31 00:09:35;;;;;;;4.43;1.77;;;14.50;99.90;;;;;;5073829;28;20020;-63
2021/12/31 00:12:03;;;;;;;9.50;1.63;;;14.40;99.90;;;;;;5076297;28;20601;-63
2021/12/31 00:14:28;;;;;;;5.25;1.60;;;14.50;99.90;;;;;;5057652;28;20028;-63
2021/12/31 00:16:54;;;;;;;7.05;2.00;;;14.40;99.90;;;;;;5066604;28;20043;-62
2021/12/31 00:19:20;;;;;;;4.57;1.73;;;14.40;99.90;;;;;;5078654;28;20028;-62
2021/12/31 00:21:48;;;;;;;7.32;2.17;;;14.40;99.90;;;;;;5075174;28;20821;-63
2021/12/31 00:24:13;;;;;;;5.50;1.58;;;14.40;99.90;;;;;;5070874;28;20052;-63
2021/12/31 00:26:39;;;;;;;4.43;1.50;;;14.40;99.90;;;;;;5073305;28;20040;-63
2021/12/31 00:29:04;;;;;;;5.85;1.65;;;14.40;99.90;;;;;;5078822;28;20020;-63
2021/12/31 00:31:30;;;;;;;5.10;1.70;;;14.40;99.90;;;;;;5072682;28;20033;-63
2021/12/31 00:33:55;;;;;;;4.88;2.00;;;14.40;99.90;;;;;;5070445;28;20096;-63
2021/12/31 00:36:21;;;;;;;6.05;1.88;;;14.40;99.90;;;;;;5070214;28;20017;-63
2021/12/31 00:38:47;;;;;;;6.18;2.15;;;14.40;99.90;;;;;;5070104;28;20386;-63
2021/12/31 00:41:12;;;;;;;3.85;1.40;;;14.40;99.90;;;;;;5070165;28;20104;-63
2021/12/31 00:43:38;;;;;;;6.07;2.10;;;14.40;99.90;;;;;;5078282;28;20028;-63
2021/12/31 00:46:04;;;;;;;6.03;2.65;;;14.40;99.90;;;;;;5072960;28;20063;-63
2021/12/31 00:48:30;;;;;;;6.65;1.63;;;14.40;99.90;;;;;;5066674;28;20020;-63
2021/12/31 00:50:56;;;;;;;5.82;1.85;;;14.40;99.90;;;;;;5075878;28;20052;-63
2021/12/31 00:53:22;;;;;;;6.85;1.77;;;14.50;99.90;;;;;;5069856;28;20759;-63
2021/12/31 00:55:48;;;;;;;3.45;1.17;;;14.50;99.90;;;;;;5069876;28;20039;-63
2021/12/31 00:58:16;;;;;;;4.50;1.40;;;14.50;99.90;;;;;;5075295;28;20113;-63
2021/12/31 01:00:42;;;;;;;5.35;1.25;;;14.50;99.90;;;;;;5075537;28;20111;-63
2021/12/31 01:03:08;;;;;;;4.45;1.15;;;14.50;99.90;;;;;;5051419;28;20115;-63
2021/12/31 01:05:34;;;;;;;6.38;1.38;;;14.50;99.90;;;;;;5054575;28;20148;-63
2021/12/31 01:07:59;;;;;;;3.55;1.27;;;14.50;99.90;;;;;;5074002;28;20044;-63
2021/12/31 01:10:27;;;;;;;4.50;1.48;;;14.50;99.90;;;;;;5071335;28;20103;-63
2021/12/31 01:12:53;;;;;;;4.35;1.00;;;14.50;99.90;;;;;;5075261;28;20032;-63
2021/12/31 01:15:32;;;;;;;5.05;1.23;;;14.50;99.90;;;;;;5072303;28;20013;-62
2021/12/31 01:20:23;;;;;;;3.25;1.65;;;14.40;99.90;;;;;;5075255;28;20079;-63
2021/12/31 01:22:49;;;;;;;5.40;1.30;;;14.50;99.90;;;;;;5069234;28;20032;-63
2021/12/31 01:25:15;;;;;;;5.07;1.40;;;14.40;99.90;;;;;;5071533;28;20040;-63
2021/12/31 01:27:42;;;;;;;4.22;1.23;;;14.50;99.90;;;;;;5075892;28;20484;-62
2021/12/31 01:30:10;;;;;;;6.07;1.48;;;14.40;99.90;;;;;;5073840;28;20041;-63
2021/12/31 01:32:36;;;;;;;6.28;1.35;;;14.40;99.90;;;;;;5067435;28;20039;-63
2021/12/31 01:35:02;;;;;;;3.50;1.00;;;14.50;99.90;;;;;;5069945;28;20028;-63
2021/12/31 01:37:59;;;;;;;6.43;1.60;;;14.50;99.90;;;;;;5077315;28;20032;-63
2021/12/31 01:40:25;;;;;;;4.85;1.35;;;14.50;99.90;;;;;;5070793;28;20048;-62
2021/12/31 01:42:52;;;;;;;3.17;1.00;;;14.50;99.90;;;;;;5075371;28;20068;-63
2021/12/31 01:45:20;;;;;;;3.45;1.10;;;14.50;99.90;;;;;;5051290;28;20108;-63
2021/12/31 01:50:26;;;;;;;4.70;1.27;;;14.50;99.90;;;;;;5069016;28;20026;-63
2021/12/31 01:52:52;;;;;;;5.68;0.90;;;14.50;99.90;;;;;;5074441;28;20032;-63
2021/12/31 01:55:19;;;;;;;3.10;0.88;;;14.50;99.90;;;;;;5068548;28;20089;-63
2021/12/31 01:57:45;;;;;;;2.60;1.00;;;14.50;99.90;;;;;;5070198;28;20036;-63
2021/12/31 02:00:11;;;;;;;4.85;1.23;;;14.60;99.90;;;;;;5068263;28;20032;-63
2021/12/31 02:02:37;;;;;;;2.72;1.10;;;14.60;99.90;;;;;;5067032;28;20043;-62
2021/12/31 02:05:04;;;;;;;6.25;1.55;;;14.60;99.90;;;;;;5071423;28;20025;-63
2021/12/31 02:07:30;;;;;;;2.85;0.95;;;14.60;99.90;;;;;;5070297;28;20057;-63
2021/12/31 02:09:56;;;;;;;3.22;0.90;;;14.60;99.90;;;;;;5071141;28;20017;-63
2021/12/31 02:12:25;;;;;;;3.83;1.27;;;14.60;99.90;;;;;;5071309;28;20090;-62
2021/12/31 02:14:51;;;;;;;2.78;1.00;;;14.60;99.90;;;;;;5066870;28;20567;-63
2021/12/31 02:17:18;;;;;;;2.63;0.82;;;14.60;99.90;;;;;;5058159;28;20034;-63
2021/12/31 02:20:05;;;;;;;4.57;1.23;;;14.60;99.90;;;;;;5068209;28;20027;-63
2021/12/31 02:22:31;;;;;;;3.80;0.82;;;14.70;99.90;;;;;;5068221;28;20035;-62
2021/12/31 02:25:00;;;;;;;4.55;1.35;;;14.60;99.90;;;;;;5061349;28;20040;-63
2021/12/31 02:27:26;;;;;;;2.63;0.87;;;14.70;99.90;;;;;;5068288;28;20016;-63
2021/12/31 02:29:51;;;;;;;2.72;0.90;;;14.70;99.90;;;;;;5068466;28;20935;-63
2021/12/31 02:32:17;;;;;;;2.88;0.80;;;14.70;99.90;;;;;;5073702;28;20032;-63
2021/12/31 02:34:43;;;;;;;3.42;0.98;;;14.70;99.90;;;;;;5068239;28;20436;-63
2021/12/31 02:37:08;;;;;;;3.78;1.00;;;14.70;99.90;;;;;;5072687;28;20028;-63
2021/12/31 02:39:38;;;;;;;3.95;1.15;;;14.70;99.90;;;;;;5074431;28;21743;-62
2021/12/31 02:42:04;;;;;;;2.65;1.10;;;14.70;99.90;;;;;;5068102;28;20082;-63
2021/12/31 02:44:30;;;;;;;3.15;1.35;;;14.70;99.90;;;;;;5068160;28;20028;-63
2021/12/31 02:46:55;;;;;;;4.43;1.13;;;14.70;99.90;;;;;;5073548;28;20770;-63
2021/12/31 02:49:24;;;;;;;4.88;1.05;;;14.60;99.90;;;;;;5070653;28;20837;-63
2021/12/31 02:51:50;;;;;;;3.67;0.82;;;14.60;99.90;;;;;;5051882;28;20056;-63
2021/12/31 02:54:16;;;;;;;5.43;1.77;;;14.70;99.90;;;;;;5073766;28;20067;-63
2021/12/31 02:56:41;;;;;;;4.53;0.90;;;14.70;99.90;;;;;;5070545;28;20040;-63
2021/12/31 02:59:10;;;;;;;5.47;1.13;;;14.70;99.90;;;;;;5070764;28;20021;-63
2021/12/31 03:01:36;;;;;;;1.70;0.77;;;14.70;99.90;;;;;;5070527;28;20032;-63
2021/12/31 03:04:03;;;;;;;4.18;0.75;;;14.60;99.90;;;;;;5050248;28;20024;-62
2021/12/31 03:06:29;;;;;;;4.60;0.88;;;14.60;99.90;;;;;;5074858;28;20028;-63
2021/12/31 03:08:56;;;;;;;5.03;1.00;;;14.60;99.90;;;;;;5088780;28;20557;-64
2021/12/31 03:11:23;;;;;;;3.95;1.02;;;14.60;99.90;;;;;;5075742;28;20031;-63
2021/12/31 03:13:52;;;;;;;6.82;0.90;;;14.60;99.90;;;;;;5067830;28;20024;-63
2021/12/31 03:16:19;;;;;;;3.85;1.15;;;14.60;99.90;;;;;;5070168;28;20020;-63
2021/12/31 03:18:45;;;;;;;4.57;1.00;;;14.60;99.90;;;;;;5073422;28;20020;-63
2021/12/31 03:21:20;;;;;;;2.95;0.90;;;14.60;99.90;;;;;;5078322;28;20085;-63
2021/12/31 03:23:46;;;;;;;3.42;1.00;;;14.60;99.90;;;;;;5068322;28;20768;-63
2021/12/31 03:26:12;;;;;;;5.55;1.27;;;14.60;99.90;;;;;;5074187;28;20045;-63
2021/12/31 03:28:38;;;;;;;4.82;1.10;;;14.70;99.90;;;;;;5070367;28;20384;-63
2021/12/31 03:31:03;;;;;;;3.13;0.98;;;14.60;99.90;;;;;;5067577;28;20029;-63
2021/12/31 03:33:29;;;;;;;4.28;1.23;;;14.60;99.90;;;;;;5072178;28;20032;-63
2021/12/31 03:35:54;;;;;;;3.30;1.10;;;14.60;99.90;;;;;;5067864;28;20070;-63
2021/12/31 03:38:20;;;;;;;2.60;1.10;;;14.60;99.90;;;;;;5074645;28;20028;-63
2021/12/31 03:40:47;;;;;;;3.38;1.30;;;14.60;99.90;;;;;;5077120;28;20084;-63
2021/12/31 03:43:13;;;;;;;9.20;1.52;;;14.60;99.90;;;;;;5076811;28;20024;-63
2021/12/31 03:45:40;;;;;;;3.55;1.15;;;14.60;99.90;;;;;;5080019;28;20024;-63
2021/12/31 03:48:05;;;;;;;4.30;1.10;;;14.60;99.90;;;;;;5055691;28;20407;-62
2021/12/31 03:50:31;;;;;;;4.30;1.65;;;14.60;99.90;;;;;;5075267;28;20034;-63
2021/12/31 03:52:57;;;;;;;5.22;1.60;;;14.60;99.90;;;;;;5073740;28;20039;-63
2021/12/31 03:55:23;;;;;;;4.10;1.02;;;14.60;99.90;;;;;;5071116;28;20047;-63
2021/12/31 03:57:48;;;;;;;2.92;1.15;;;14.60;99.90;;;;;;5075634;28;20044;-63
2021/12/31 04:00:14;;;;;;;3.05;1.13;;;14.50;99.90;;;;;;5072020;28;20484;-62
2021/12/31 04:02:40;;;;;;;4.07;1.02;;;14.50;99.90;;;;;;5073545;28;20143;-63
2021/12/31 04:05:06;;;;;;;2.38;1.00;;;14.50;99.90;;;;;;5073656;28;20383;-63
2021/12/31 04:07:32;;;;;;;3.92;1.20;;;14.50;99.90;;;;;;5070779;28;20044;-63
2021/12/31 04:09:57;;;;;;;3.47;1.00;;;14.50;99.90;;;;;;5055603;28;20039;-63
2021/12/31 04:12:23;;;;;;;7.45;1.58;;;14.50;99.90;;;;;;5070705;28;20481;-63
2021/12/31 04:14:48;;;;;;;5.03;1.20;;;14.50;99.90;;;;;;5073337;28;20020;-63
2021/12/31 04:17:14;;;;;;;4.70;1.40;;;14.50;99.90;;;;;;5076326;28;20388;-63
2021/12/31 04:19:41;;;;;;;3.40;1.30;;;14.50;99.90;;;;;;5075915;28;20488;-63
2021/12/31 04:22:08;;;;;;;3.35;1.40;;;14.40;99.90;;;;;;5076086;28;20105;-63
2021/12/31 04:27:08;;;;;;;3.25;1.10;;;14.40;99.90;;;;;;5079009;28;20016;-63
2021/12/31 04:29:34;;;;;;;5.90;1.58;;;14.40;99.90;;;;;;5073498;28;20483;-63
2021/12/31 04:32:00;;;;;;;4.97;1.30;;;14.40;99.90;;;;;;5070217;28;20036;-63
2021/12/31 04:34:27;;;;;;;3.38;1.30;;;14.40;99.90;;;;;;5078448;28;20032;-63
2021/12/31 04:36:52;;;;;;;4.13;1.35;;;14.40;99.90;;;;;;5076208;28;20086;-63
2021/12/31 04:39:18;;;;;;;3.63;1.35;;;14.40;99.90;;;;;;5072898;28;20115;-62
2021/12/31 04:41:43;;;;;;;2.45;0.90;;;14.30;99.90;;;;;;5073957;28;20063;-63
2021/12/31 04:44:09;;;;;;;4.50;1.30;;;14.30;99.90;;;;;;5077377;28;20494;-62
2021/12/31 04:46:34;;;;;;;6.65;1.45;;;14.30;99.90;;;;;;5075514;28;20028;-63
2021/12/31 04:49:00;;;;;;;6.00;1.63;;;14.30;99.90;;;;;;5070039;28;20095;-62
2021/12/31 04:51:25;;;;;;;3.97;1.27;;;14.20;99.90;;;;;;5072920;28;20020;-63
2021/12/31 04:53:51;;;;;;;6.28;1.13;;;14.20;99.90;;;;;;5080370;28;20476;-63
2021/12/31 04:56:16;;;;;;;4.60;1.48;;;14.20;99.90;;;;;;5073311;28;20040;-63
2021/12/31 04:58:42;;;;;;;5.72;1.15;;;14.20;99.90;;;;;;5081832;28;20036;-63
2021/12/31 05:01:07;;;;;;;8.45;1.40;;;14.20;99.90;;;;;;5078844;28;20043;-63
2021/12/31 05:03:33;;;;;;;4.50;1.25;;;14.20;99.90;;;;;;5078713;28;20029;-63
2021/12/31 05:05:58;;;;;;;4.57;1.40;;;14.30;99.90;;;;;;5075812;28;20419;-63
2021/12/31 05:08:24;;;;;;;5.90;1.42;;;14.30;99.90;;;;;;5073354;28;20028;-63
2021/12/31 05:10:49;;;;;;;4.32;1.25;;;14.20;99.90;;;;;;5076810;28;20023;-63
2021/12/31 05:13:15;;;;;;;5.47;1.67;;;14.30;99.90;;;;;;5072210;28;20040;-62
2021/12/31 05:15:46;;;;;;;4.35;1.63;;;14.20;99.90;;;;;;5077580;28;20067;-62
2021/12/31 05:18:13;;;;;;;4.10;1.13;;;14.20;99.90;;;;;;5054158;28;20585;-62
2021/12/31 05:20:39;;;;;;;5.82;2.13;;;14.20;99.90;;;;;;5067710;28;20031;-62
2021/12/31 05:23:04;;;;;;;3.13;1.38;;;14.20;99.90;;;;;;5074893;28;20024;-63
2021/12/31 05:25:30;;;;;;;3.47;1.45;;;14.20;99.90;;;;;;5073604;28;20491;-63
2021/12/31 05:27:56;;;;;;;4.43;1.60;;;14.20;99.90;;;;;;5075709;28;20838;-63
2021/12/31 05:30:21;;;;;;;5.53;1.50;;;14.20;99.90;;;;;;5074738;28;20077;-63
2021/12/31 05:32:47;;;;;;;4.90;1.92;;;14.20;99.90;;;;;;5074716;28;20022;-62
2021/12/31 05:35:14;;;;;;;4.72;1.88;;;14.20;99.90;;;;;;5080475;28;20029;-63
2021/12/31 05:37:39;;;;;;;3.40;1.33;;;14.10;99.90;;;;;;5068940;28;20032;-63
2021/12/31 05:40:07;;;;;;;5.63;1.83;;;14.10;99.90;;;;;;5073097;28;20024;-63
2021/12/31 05:42:32;;;;;;;4.97;1.48;;;14.10;99.90;;;;;;5067401;28;20036;-62
2021/12/31 05:44:58;;;;;;;4.78;1.30;;;14.10;99.90;;;;;;5074486;28;20016;-63
2021/12/31 05:47:23;;;;;;;3.72;1.20;;;14.10;99.90;;;;;;5071525;28;20023;-62
2021/12/31 05:49:50;;;;;;;2.70;1.10;;;14.10;99.90;;;;;;5074563;28;20047;-63
2021/12/31 05:52:15;;;;;;;5.60;1.90;;;14.10;99.90;;;;;;5071677;28;20024;-63
2021/12/31 05:54:41;;;;;;;7.40;1.80;;;14.00;99.90;;;;;;5071292;28;20085;-63
2021/12/31 05:57:07;;;;;;;6.65;1.40;;;14.00;99.90;;;;;;5071136;28;20444;-63
2021/12/31 05:59:32;;;;;;;4.93;1.60;;;14.00;99.90;;;;;;5071434;28;20097;-63
2021/12/31 06:01:58;;;;;;;4.75;2.00;;;14.00;99.90;;;;;;5056338;28;20032;-62
2021/12/31 06:04:24;;;;;;;3.90;1.33;;;14.00;99.90;;;;;;5071223;28;20024;-62
2021/12/31 06:06:49;;;;;;;6.68;1.45;;;14.00;99.90;;;;;;5068766;28;20016;-63
2021/12/31 06:09:15;;;;;;;5.15;1.70;;;14.00;99.90;;;;;;5068595;28;20052;-62
2021/12/31 06:14:39;;;;;;;6.90;2.05;;;13.90;99.90;;;;;;5071318;28;20064;-63
2021/12/31 06:17:07;;;;;;;3.55;1.27;;;13.90;99.90;;;;;;5071205;28;20028;-62
2021/12/31 06:19:38;;;;;;;7.63;2.33;;;13.80;99.90;;;;;;5076848;28;20016;-63
2021/12/31 06:22:04;;;;;;;6.25;1.70;;;13.90;99.90;;;;;;5071055;28;20033;-63
2021/12/31 06:24:29;;;;;;;4.53;1.50;;;13.80;99.90;;;;;;5072729;28;20062;-63
2021/12/31 06:26:55;;;;;;;3.50;1.20;;;13.80;99.90;;;;;;5069223;28;20036;-63
2021/12/31 06:29:21;;;;;;;7.90;1.88;;;13.80;99.90;;;;;;5070792;28;20097;-62
2021/12/31 06:31:46;;;;;;;4.43;1.70;;;13.80;99.90;;;;;;5076281;28;20024;-63
2021/12/31 06:34:12;;;;;;;2.95;1.40;;;13.80;99.90;;;;;;5073707;28;20027;-63
2021/12/31 06:36:37;;;;;;;4.93;1.77;;;13.80;99.90;;;;;;5070477;28;20438;-63
2021/12/31 06:39:03;;;;;;;5.43;1.40;;;13.80;99.90;;;;;;5055739;28;20130;-62
2021/12/31 06:41:29;;;;;;;3.28;1.50;;;13.80;99.90;;;;;;5067823;28;20017;-62
2021/12/31 06:43:55;;;;;;;3.97;1.35;;;13.70;99.90;;;;;;5073599;28;20574;-63
2021/12/31 06:46:36;;;;;;;3.70;1.30;;;13.70;99.90;;;;;;5066362;28;20028;-63
2021/12/31 06:49:01;;;;;;;2.47;1.02;;;13.70;99.90;;;;;;5070759;28;20031;-63
2021/12/31 06:51:27;;;;;;;4.68;1.23;;;13.60;99.90;;;;;;5055447;28;20388;-63
2021/12/31 06:53:53;;;;;;;4.80;1.48;;;13.60;99.90;;;;;;5067516;28;20020;-63
2021/12/31 06:56:18;;;;;;;4.32;1.77;;;13.60;99.90;;;;;;5075920;28;20103;-62
2021/12/31 06:58:44;;;;;;;4.40;1.70;;;13.60;99.90;;;;;;5070619;28;20384;-63
2021/12/31 07:01:10;;;;;;;3.55;1.40;;;13.50;99.90;;;;;;5073516;28;20023;-62
2021/12/31 07:03:36;;;;;;;5.45;1.60;;;13.50;99.90;;;;;;5082820;28;20053;-62
2021/12/31 07:06:02;;;;;;;5.88;1.73;;;13.50;99.90;;;;;;5090180;28;20463;-62
2021/12/31 07:08:28;;;;;;;4.22;1.60;;;13.40;99.90;;;;;;5075171;28;20095;-62
2021/12/31 07:10:53;;;;;;;3.38;1.42;;;13.40;99.90;;;;;;5089213;28;20119;-62
2021/12/31 07:13:19;;;;;;;4.70;1.60;;;13.30;99.90;;;;;;5095147;28;20475;-62
2021/12/31 07:15:48;;;;;;;5.07;1.50;;;13.30;99.90;;;;;;5095815;28;20428;-63
2021/12/31 07:18:19;;;;;;;4.38;1.50;;;13.30;99.90;;;;;;5096012;28;20094;-62
2021/12/31 07:20:45;;;;;;;3.95;1.70;;;13.20;99.90;;;;;;5077829;28;20036;-62
2021/12/31 07:23:12;;;;;;;5.47;1.60;;;13.20;99.90;;;;;;5095583;28;20039;-63
2021/12/31 07:25:39;;;;;;;5.78;1.70;;;13.20;99.90;;;;;;5095651;28;20047;-62
2021/12/31 07:28:06;;;;;;;4.28;1.50;;;13.10;99.90;;;;;;5095667;28;20020;-62
2021/12/31 07:30:31;;;;;;;4.53;1.70;;;13.10;99.90;;;;;;5095600;28;20111;-62
2021/12/31 07:32:57;;;;;;;2.90;1.15;;;13.10;99.90;;;;;;5077621;28;20118;-62
2021/12/31 07:35:23;;;;;;;5.78;1.55;;;13.10;99.90;;;;;;5095614;28;20093;-62
2021/12/31 07:37:52;;;;;;;4.95;1.70;;;13.10;99.90;;;;;;5077672;28;20039;-63
2021/12/31 07:40:25;;;;;;;4.13;1.50;;;13.10;99.90;;;;;;5095586;28;20074;-62
2021/12/31 07:43:27;;;;;;;3.67;1.60;;;13.10;99.90;;;;;;5094870;28;20035;-62
2021/12/31 07:46:00;;;;;;;3.92;1.70;;;13.10;99.90;;;;;;5095357;28;20020;-62
2021/12/31 07:48:25;;;;;;;3.28;1.40;;;13.00;99.90;;;;;;5095298;28;20024;-62
2021/12/31 07:50:53;;;;;;;2.65;1.40;;;13.00;99.90;;;;;;5095038;28;20433;-63
2021/12/31 07:53:18;;;;;;;6.20;1.77;;;13.00;99.90;;;;;;5083330;28;20103;-62
2021/12/31 07:55:44;;;;;;;3.55;1.30;;;13.00;99.90;;;;;;5090639;28;20650;-62
2021/12/31 07:58:10;;;;;;;4.55;1.70;;;13.00;99.90;;;;;;5075715;28;20020;-63
2021/12/31 08:00:36;;;;;;;3.88;1.45;;;13.00;99.90;;;;;;5091319;28;20025;-63
2021/12/31 08:03:03;;;;;;;5.40;1.45;;;13.00;99.90;;;;;;5091181;28;20020;-63
2021/12/31 08:05:31;;;;;;;5.13;1.25;;;13.00;99.90;;;;;;5091112;28;20016;-63
2021/12/31 08:07:57;;;;;;;6.18;1.63;;;13.00;99.90;;;;;;5094226;28;20058;-62
2021/12/31 08:10:23;;;;;;;4.68;1.40;;;13.00;99.90;;;;;;5095091;28;20025;-63
2021/12/31 08:12:54;;;;;;;4.28;1.50;;;13.00;99.90;;;;;;5092770;28;20047;-63
2021/12/31 08:15:20;;;;;;;3.95;1.42;;;13.00;99.90;;;;;;5090640;28;20512;-63
2021/12/31 08:17:45;;;;;;;3.80;1.60;;;12.90;99.90;;;;;;5081331;28;20024;-63
2021/12/31 08:20:11;;;;;;;5.95;1.50;;;12.90;99.90;;;;;;5071520;28;20028;-63
2021/12/31 08:22:36;;;;;;;2.20;1.35;;;12.90;99.90;;;;;;5092657;28;20492;-62
2021/12/31 08:25:03;;;;;;;3.03;1.33;;;12.90;99.90;;;;;;5093722;28;20123;-63
2021/12/31 08:27:29;;;;;;;5.50;1.50;;;12.90;99.90;;;;;;5093399;28;20066;-62
2021/12/31 08:29:54;;;;;;;5.78;1.75;;;12.90;99.90;;;;;;5092658;28;20067;-62
2021/12/31 08:32:20;;;;;;;3.38;1.20;;;13.00;99.90;;;;;;5075034;28;20036;-63
2021/12/31 08:34:45;;;;;;;3.53;1.00;;;12.90;99.90;;;;;;5075848;28;20039;-62
2021/12/31 08:37:11;;;;;;;6.55;1.55;;;12.90;99.90;;;;;;5093928;28;20032;-62
2021/12/31 08:39:36;;;;;;;4.18;1.45;;;13.00;99.90;;;;;;5093983;28;20503;-62
2021/12/31 08:42:04;;;;;;;5.93;1.50;;;13.00;99.90;;;;;;5093937;28;20392;-62
2021/12/31 08:44:30;;;;;;;4.25;1.50;;;13.00;99.90;;;;;;5093608;28;20020;-62
2021/12/31 08:46:56;;;;;;;3.58;1.13;;;13.00;99.90;;;;;;5092610;28;20036;-62
2021/12/31 08:49:23;;;;;;;4.00;1.40;;;13.00;99.90;;;;;;5074965;28;20047;-62
2021/12/31 08:51:49;;;;;;;3.15;1.00;;;13.10;99.90;;;;;;5071698;28;20016;-62
2021/12/31 08:54:14;;;;;;;3.53;1.20;;;13.10;99.90;;;;;;5092257;28;20028;-62
2021/12/31 08:56:43;;;;;;;5.15;1.30;;;13.10;99.90;;;;;;5054492;28;20021;-62
2021/12/31 08:59:09;;;;;;;3.65;1.40;;;13.10;99.90;;;;;;5072422;28;20024;-62
2021/12/31 09:01:35;;;;;;;3.72;1.10;;;13.10;99.90;;;;;;5072617;28;20457;-63
2021/12/31 09:04:00;;;;;;;3.20;1.00;;;13.10;99.90;;;;;;5072793;28;20103;-62
2021/12/31 09:06:26;;;;;;;2.53;1.00;;;13.20;99.90;;;;;;5073109;28;20028;-62
2021/12/31 09:08:51;;;;;;;3.78;1.48;;;13.10;99.90;;;;;;5073080;28;20037;-62
2021/12/31 09:11:17;;;;;;;4.05;1.17;;;13.20;99.90;;;;;;5071592;28;20028;-62
2021/12/31 09:13:47;;;;;;;2.30;0.95;;;13.10;99.90;;;;;;5072582;28;20396;-62
2021/12/31 09:16:12;;;;;;;3.78;1.33;;;13.20;99.90;;;;;;5089143;28;20028;-62
2021/12/31 09:18:38;;;;;;;2.58;1.10;;;13.20;99.90;;;;;;5093141;28;20028;-62
2021/12/31 09:21:04;;;;;;;1.85;1.00;;;13.20;99.90;;;;;;5092899;28;20479;-63
2021/12/31 09:23:30;;;;;;;5.60;1.45;;;13.20;99.90;;;;;;5074613;28;20032;-62
2021/12/31 09:26:26;;;;;;;2.72;1.35;;;13.20;99.90;;;;;;5092717;28;20503;-62
2021/12/31 09:28:51;;;;;;;4.63;1.60;;;13.30;99.90;;;;;;5093099;28;20387;-62
2021/12/31 09:31:28;;;;;;;2.92;1.20;;;13.30;99.90;;;;;;5073613;28;20020;-62
2021/12/31 09:33:54;;;;;;;5.50;1.27;;;13.30;99.90;;;;;;5074630;28;20032;-62
2021/12/31 09:36:41;;;;;;;4.10;1.40;;;13.30;99.90;;;;;;5092752;28;20027;-62
2021/12/31 09:39:20;;;;;;;1.95;1.00;;;13.30;99.90;;;;;;5072639;28;20073;-63
2021/12/31 09:41:46;;;;;;;3.63;0.90;;;13.40;99.90;;;;;;5092367;28;20024;-62
2021/12/31 09:45:01;;;;;;;7.60;1.20;;;13.30;99.90;;;;;;5092457;28;20047;-62
2021/12/31 09:47:27;;;;;;;2.55;1.13;;;13.30;99.90;;;;;;5092640;28;20107;-62
2021/12/31 09:49:52;;;;;;;2.97;1.30;;;13.30;99.90;;;;;;5092480;28;20102;-62
2021/12/31 09:53:20;;;;;;;2.50;1.20;;;13.30;99.90;;;;;;5091549;28;20063;-62
2021/12/31 09:57:07;;;;;;;2.35;0.90;;;13.40;99.90;;;;;;5072371;28;20031;-62
2021/12/31 09:59:46;;;;;;;2.00;0.85;;;13.40;99.90;;;;;;5015930;28;20388;-62
2021/12/31 10:02:12;;;;;;;2.20;1.10;;;13.40;99.90;;;;;;5053914;28;20037;-62
2021/12/31 10:05:01;;;;;;;4.03;1.50;;;13.40;99.90;;;;;;5071956;28;20380;-62
2021/12/31 10:07:29;;;;;;;6.03;1.67;;;13.40;99.90;;;;;;5072070;28;20081;-62
2021/12/31 10:10:43;;;;;;;;;;;;;;;;;;;;;
2021/12/31 10:13:14;;;;;;;3.08;1.70;;;13.50;99.90;;;;;;5059921;28;20396;-63
2021/12/31 10:16:16;;;;;;;3.55;1.40;;;13.40;99.90;;;;;;5064896;28;20051;-62
2021/12/31 10:18:41;;;;;;;2.60;1.10;;;13.40;99.90;;;;;;5010466;28;20037;-62
2021/12/31 10:21:07;;;;;;;6.10;1.27;;;13.40;99.90;;;;;;5088497;28;20031;-62
2021/12/31 10:24:00;;;;;;;4.32;1.60;;;13.40;99.90;;;;;;5069729;28;20035;-62
2021/12/31 10:26:30;;;;;;;4.25;1.50;;;13.40;99.90;;;;;;5082774;28;20032;-62
2021/12/31 10:28:58;;;;;;;2.90;1.38;;;13.40;99.90;;;;;;5088102;28;20097;-62
2021/12/31 10:31:35;;;;;;;3.53;1.13;;;13.30;99.90;;;;;;5087560;28;20026;-63
2021/12/31 10:34:37;;;;;;;3.47;1.50;;;13.40;99.90;;;;;;5069581;28;20040;-62
2021/12/31 10:37:14;;;;;;;3.53;1.80;;;13.40;99.90;;;;;;5090799;28;20022;-62
2021/12/31 10:39:40;;;;;;;4.32;1.58;;;13.40;99.90;;;;;;5090779;28;20020;-62
2021/12/31 10:42:13;;;;;;;4.07;1.42;;;13.40;99.90;;;;;;5087396;28;20047;-62
2021/12/31 10:44:52;;;;;;;3.90;1.48;;;13.50;99.90;;;;;;5090420;28;20099;-62
2021/12/31 10:47:27;;;;;;;6.35;1.67;;;13.60;99.90;;;;;;5088775;28;20012;-62
2021/12/31 10:50:11;;;;;;;2.83;1.10;;;13.70;99.90;;;;;;5088157;28;20103;-63
2021/12/31 10:52:53;;;;;;;3.78;1.50;;;13.80;99.90;;;;;;5086382;28;20453;-62
2021/12/31 10:55:24;;;;;;;2.42;1.17;;;14.00;99.90;;;;;;5090416;28;20016;-62
2021/12/31 10:57:52;;;;;;;2.47;1.38;;;14.00;99.70;;;;;;5084995;28;20052;-62
2021/12/31 11:00:19;;;;;;;2.70;1.10;;;14.00;99.60;;;;;;5089532;28;20020;-62
2021/12/31 11:02:46;;;;;;;3.17;1.10;;;14.00;99.60;;;;;;5091177;28;20511;-62
2021/12/31 11:05:13;;;;;;;2.85;1.35;;;13.90;99.70;;;;;;5091222;28;20085;-62
2021/12/31 11:07:40;;;;;;;3.45;1.15;;;13.90;99.70;;;;;;5090935;28;20016;-62
2021/12/31 11:10:06;;;;;;;5.03;1.40;;;13.80;99.90;;;;;;5090783;28;20012;-63
2021/12/31 11:12:33;;;;;;;5.03;1.83;;;13.80;99.90;;;;;;5087169;28;20484;-62
2021/12/31 11:14:58;;;;;;;3.67;1.50;;;13.80;99.90;;;;;;5090939;28;20463;-62
2021/12/31 11:17:44;;;;;;;3.47;1.60;;;13.90;99.90;;;;;;5090958;28;20047;-62
2021/12/31 11:20:12;;;;;;;4.53;1.70;;;14.00;99.80;;;;;;5089262;28;20080;-63
2021/12/31 11:22:38;;;;;;;4.13;1.20;;;14.00;99.60;;;;;;5091077;28;20028;-62
2021/12/31 11:25:43;;;;;;;;;;;;;;;;;;;;;
2021/12/31 11:28:58;;;;;;;3.42;1.30;;;14.40;99.20;;;;;;5090040;28;20054;-63
2021/12/31 11:31:25;;;;;;;4.72;1.73;;;14.40;98.90;;;;;;5062667;28;20058;-62
2021/12/31 11:33:56;;;;;;;3.13;1.63;;;14.30;99.10;;;;;;5082830;28;20047;-63
2021/12/31 11:36:38;;;;;;;2.33;1.30;;;14.70;98.90;;;;;;5086787;28;20095;-63
2021/12/31 11:39:15;;;;;;;3.45;1.50;;;15.10;98.30;;;;;;5088582;28;20020;-62
2021/12/31 11:41:41;;;;;;;2.70;1.17;;;15.60;97.90;;;;;;5089842;28;20016;-63
2021/12/31 11:44:13;;;;;;;2.08;1.00;;;15.80;96.60;;;;;;5089848;28;20032;-62
2021/12/31 11:46:53;;;;;;;2.90;1.20;;;15.80;96.40;;;;;;5090649;28;20410;-63
2021/12/31 11:49:25;;;;;;;4.50;1.80;;;15.70;96.30;;;;;;5090157;28;20023;-62
2021/12/31 11:52:14;;;;;;;3.03;1.20;;;15.50;96.40;;;;;;5086381;28;20020;-63
2021/12/31 11:54:40;;;;;;;2.80;1.10;;;15.60;96.90;;;;;;5084153;28;20517;-62
2021/12/31 11:57:09;;;;;;;4.68;1.60;;;15.90;96.40;;;;;;5077801;28;20025;-63
2021/12/31 11:59:43;;;;;;;4.00;1.92;;;16.60;96.40;;;;;;5074417;28;20498;-63
2021/12/31 12:02:16;;;;;;;2.97;1.10;;;18.50;94.80;;;;;;5074087;28;20025;-63
2021/12/31 12:05:26;;;;;;;4.70;1.67;;;19.00;90.90;;;;;;5064955;28;20028;-63
2021/12/31 12:07:52;;;;;;;5.93;1.33;;;18.30;90.40;;;;;;5091400;28;20024;-62
2021/12/31 12:10:26;;;;;;;4.43;1.40;;;17.40;91.30;;;;;;5094429;28;20051;-62
2021/12/31 12:13:29;;;;;;;4.57;1.52;;;16.70;92.20;;;;;;5094705;28;20024;-63
2021/12/31 12:15:55;;;;;;;5.18;1.58;;;16.30;93.30;;;;;;5075817;28;20064;-62
2021/12/31 12:18:54;;;;;;;2.35;1.40;;;15.90;94.10;;;;;;5094333;28;20032;-62
2021/12/31 12:21:37;;;;;;;6.33;2.10;;;15.60;94.60;;;;;;5049750;28;20036;-62
2021/12/31 12:24:04;;;;;;;6.60;2.17;;;15.50;95.30;;;;;;5075204;28;20324;-62
2021/12/31 12:26:30;;;;;;;3.88;1.50;;;15.30;95.60;;;;;;5093243;28;20036;-62
2021/12/31 12:28:56;;;;;;;3.42;1.83;;;15.30;95.90;;;;;;5087672;28;20103;-62
2021/12/31 12:31:21;;;;;;;3.90;1.50;;;15.20;96.10;;;;;;5093151;28;20103;-62
2021/12/31 12:34:04;;;;;;;3.28;1.60;;;15.10;96.20;;;;;;5092763;28;20039;-63
2021/12/31 12:36:30;;;;;;;5.80;1.52;;;15.10;96.30;;;;;;5088517;28;20030;-62
2021/12/31 12:39:05;;;;;;;4.20;1.70;;;15.00;96.60;;;;;;5090302;28;20754;-63
2021/12/31 12:41:30;;;;;;;3.00;1.42;;;15.00;96.60;;;;;;5090100;28;20024;-63
2021/12/31 12:44:09;;;;;;;;;;;;;;;;;;;;;
2021/12/31 12:46:36;;;;;;;4.25;1.63;;;14.90;96.90;;;;;;5090444;28;20012;-63
2021/12/31 12:49:10;;;;;;;4.43;1.60;;;14.80;97.10;;;;;;5087093;28;20043;-63
2021/12/31 12:51:37;;;;;;;3.45;1.35;;;14.80;97.30;;;;;;5093313;28;20024;-63
2021/12/31 12:54:13;;;;;;;5.43;1.90;;;14.70;97.50;;;;;;5093633;28;20531;-63
2021/12/31 12:56:39;;;;;;;2.92;1.65;;;14.80;97.50;;;;;;5093591;28;20071;-62
2021/12/31 12:59:05;;;;;;;4.70;1.63;;;14.90;97.40;;;;;;5093597;28;20135;-62
2021/12/31 13:01:41;;;;;;;2.95;1.30;;;15.00;97.20;;;;;;5093543;28;20024;-63
2021/12/31 13:04:09;;;;;;;6.18;2.00;;;15.00;97.10;;;;;;5093340;28;20032;-63
2021/12/31 13:06:35;;;;;;;3.55;1.90;;;14.90;97.20;;;;;;5075702;28;20533;-63
2021/12/31 13:09:15;;;;;;;3.53;2.10;;;14.90;97.30;;;;;;5093285;28;20036;-63
2021/12/31 13:11:53;;;;;;;5.05;1.85;;;14.80;97.30;;;;;;5093286;28;20420;-63
2021/12/31 13:14:24;;;;;;;4.25;1.80;;;14.80;97.40;;;;;;5089868;28;20032;-63